IGO314 VOHS-VOBL
Flight info
| Callsign | IGO314 |
|---|---|
| Flight time | 0h 43m |
| Altitude | 32000 |
| Route | LURGI5 LURGI Q21 TELUV TELUV7E |
| Aircraft | A21N/M-SDE3FGHIRWY/LB1 |
Departure
| Time | 2026-04-21 19:10 |
|---|---|
| Airport | Rajiv Gandhi International Airport (VOHS) |
Arrival
| Time | 2026-04-21 19:54 |
|---|---|
| Airport | Kempegowda International Airport Bengaluru (VOBL) |
| Time | Latitude | Longitude | Altitude | Speed | Heading |
|---|---|---|---|---|---|
| 2026-04-21 19:00 | 17.23364 | 78.43031 | 2011 ft | 2 kts | 360° |
| 2026-04-21 19:00 | 17.23352 | 78.43031 | 2011 ft | 2 kts | 0° |
| 2026-04-21 19:00 | 17.23340 | 78.43031 | 2011 ft | 2 kts | 337° |
| 2026-04-21 19:01 | 17.23329 | 78.43040 | 2012 ft | 2 kts | 290° |
| 2026-04-21 19:01 | 17.23329 | 78.43057 | 2012 ft | 2 kts | 263° |
| 2026-04-21 19:01 | 17.23329 | 78.43071 | 2013 ft | 2 kts | 272° |
| 2026-04-21 19:01 | 17.23329 | 78.43085 | 2013 ft | 0 kts | 269° |
| 2026-04-21 19:04 | 17.23329 | 78.43076 | 2013 ft | 4 kts | 269° |
| 2026-04-21 19:04 | 17.23328 | 78.43003 | 2010 ft | 14 kts | 269° |
| 2026-04-21 19:04 | 17.23327 | 78.42857 | 2004 ft | 20 kts | 269° |
| 2026-04-21 19:04 | 17.23314 | 78.42746 | 2000 ft | 11 kts | 233° |
| 2026-04-21 19:05 | 17.23197 | 78.42729 | 1998 ft | 12 kts | 171° |
| 2026-04-21 19:05 | 17.23089 | 78.42755 | 1997 ft | 9 kts | 122° |
| 2026-04-21 19:05 | 17.23079 | 78.42829 | 2001 ft | 10 kts | 88° |
| 2026-04-21 19:05 | 17.23083 | 78.42909 | 2006 ft | 11 kts | 85° |
| 2026-04-21 19:06 | 17.23083 | 78.43008 | 2010 ft | 15 kts | 91° |
| 2026-04-21 19:06 | 17.23082 | 78.43144 | 2014 ft | 20 kts | 89° |
| 2026-04-21 19:06 | 17.23085 | 78.43312 | 2019 ft | 24 kts | 89° |
| 2026-04-21 19:06 | 17.23089 | 78.43510 | 2025 ft | 28 kts | 89° |
| 2026-04-21 19:07 | 17.23091 | 78.43728 | 2033 ft | 30 kts | 89° |
| 2026-04-21 19:07 | 17.23097 | 78.43963 | 2041 ft | 33 kts | 89° |
| 2026-04-21 19:07 | 17.23100 | 78.44215 | 2048 ft | 35 kts | 89° |
| 2026-04-21 19:07 | 17.23105 | 78.44476 | 2051 ft | 33 kts | 88° |
| 2026-04-21 19:08 | 17.23106 | 78.44717 | 2047 ft | 32 kts | 89° |
| 2026-04-21 19:08 | 17.23110 | 78.44953 | 2039 ft | 31 kts | 89° |
| 2026-04-21 19:08 | 17.23114 | 78.45190 | 2034 ft | 28 kts | 89° |
| 2026-04-21 19:08 | 17.23099 | 78.45297 | 2032 ft | 12 kts | 132° |
| 2026-04-21 19:09 | 17.23017 | 78.45319 | 2033 ft | 11 kts | 188° |
| 2026-04-21 19:09 | 17.22951 | 78.45283 | 2035 ft | 9 kts | 220° |
| 2026-04-21 19:09 | 17.22915 | 78.45227 | 2036 ft | 11 kts | 254° |
| 2026-04-21 19:09 | 17.22908 | 78.45001 | 2040 ft | 64 kts | 271° |
| 2026-04-21 19:10 | 17.22897 | 78.44280 | 2044 ft | 132 kts | 270° |
| 2026-04-21 19:10 | 17.22878 | 78.43091 | 2018 ft | 189 kts | 269° |
| 2026-04-21 19:10 | 17.22858 | 78.41652 | 2587 ft | 195 kts | 269° |
| 2026-04-21 19:10 | 17.22782 | 78.40263 | 3486 ft | 188 kts | 257° |
| 2026-04-21 19:11 | 17.22107 | 78.39140 | 4091 ft | 190 kts | 212° |
| 2026-04-21 19:11 | 17.20799 | 78.38810 | 4441 ft | 202 kts | 177° |
| 2026-04-21 19:11 | 17.19308 | 78.38943 | 4816 ft | 219 kts | 173° |
| 2026-04-21 19:11 | 17.17717 | 78.39084 | 5180 ft | 237 kts | 175° |
| 2026-04-21 19:12 | 17.15971 | 78.39162 | 5481 ft | 260 kts | 177° |
| 2026-04-21 19:12 | 17.14082 | 78.39285 | 5941 ft | 278 kts | 173° |
| 2026-04-21 19:12 | 17.12136 | 78.39593 | 6654 ft | 285 kts | 169° |
| 2026-04-21 19:12 | 17.10166 | 78.39984 | 7485 ft | 287 kts | 168° |
| 2026-04-21 19:13 | 17.08186 | 78.40386 | 8278 ft | 291 kts | 168° |
| 2026-04-21 19:13 | 17.06193 | 78.40790 | 9051 ft | 295 kts | 168° |
| 2026-04-21 19:13 | 17.04147 | 78.41202 | 9822 ft | 299 kts | 168° |
| 2026-04-21 19:13 | 17.02053 | 78.41621 | 10482 ft | 307 kts | 168° |
| 2026-04-21 19:14 | 16.99891 | 78.42055 | 10860 ft | 325 kts | 168° |
| 2026-04-21 19:14 | 16.97608 | 78.42512 | 11198 ft | 344 kts | 168° |
| 2026-04-21 19:14 | 16.95156 | 78.43002 | 11520 ft | 362 kts | 168° |
| 2026-04-21 19:14 | 16.92585 | 78.43516 | 11830 ft | 380 kts | 168° |
| 2026-04-21 19:15 | 16.89971 | 78.44031 | 12113 ft | 396 kts | 169° |
| 2026-04-21 19:15 | 16.87152 | 78.44449 | 12390 ft | 412 kts | 173° |
| 2026-04-21 19:15 | 16.84220 | 78.44771 | 12739 ft | 425 kts | 173° |
| 2026-04-21 19:15 | 16.81250 | 78.45080 | 13347 ft | 429 kts | 173° |
| 2026-04-21 19:16 | 16.78214 | 78.45395 | 14020 ft | 431 kts | 173° |
| 2026-04-21 19:16 | 16.75203 | 78.45711 | 14637 ft | 435 kts | 173° |
| 2026-04-21 19:16 | 16.72151 | 78.46033 | 15239 ft | 438 kts | 173° |
| 2026-04-21 19:16 | 16.69100 | 78.46356 | 15829 ft | 442 kts | 173° |
| 2026-04-21 19:17 | 16.62866 | 78.47020 | 16989 ft | 448 kts | 173° |
| 2026-04-21 19:17 | 16.59759 | 78.47350 | 17541 ft | 451 kts | 173° |
| 2026-04-21 19:17 | 16.56575 | 78.47690 | 18086 ft | 455 kts | 173° |
| 2026-04-21 19:18 | 16.53406 | 78.48027 | 18609 ft | 458 kts | 173° |
| 2026-04-21 19:18 | 16.50212 | 78.48367 | 19118 ft | 461 kts | 173° |
| 2026-04-21 19:18 | 16.46991 | 78.48711 | 19613 ft | 464 kts | 173° |
| 2026-04-21 19:18 | 16.43739 | 78.49056 | 20101 ft | 466 kts | 173° |
| 2026-04-21 19:19 | 16.40487 | 78.49403 | 20568 ft | 469 kts | 173° |
| 2026-04-21 19:19 | 16.37207 | 78.49751 | 21022 ft | 472 kts | 173° |
| 2026-04-21 19:19 | 16.33898 | 78.50104 | 21466 ft | 475 kts | 173° |
| 2026-04-21 19:19 | 16.30590 | 78.50455 | 21896 ft | 477 kts | 173° |
| 2026-04-21 19:20 | 16.27256 | 78.50809 | 22315 ft | 480 kts | 173° |
| 2026-04-21 19:20 | 16.23913 | 78.51088 | 22716 ft | 483 kts | 176° |
| 2026-04-21 19:20 | 16.20481 | 78.51112 | 23111 ft | 486 kts | 181° |
| 2026-04-21 19:20 | 16.17094 | 78.50854 | 23455 ft | 490 kts | 185° |
| 2026-04-21 19:21 | 16.13682 | 78.50358 | 23941 ft | 489 kts | 187° |
| 2026-04-21 19:21 | 16.10327 | 78.49813 | 24512 ft | 487 kts | 188° |
| 2026-04-21 19:21 | 16.06990 | 78.49262 | 25058 ft | 485 kts | 188° |
| 2026-04-21 19:21 | 16.03620 | 78.48708 | 25572 ft | 483 kts | 187° |
| 2026-04-21 19:22 | 16.00264 | 78.48161 | 26061 ft | 482 kts | 187° |
| 2026-04-21 19:22 | 15.96961 | 78.47626 | 26535 ft | 480 kts | 187° |
| 2026-04-21 19:22 | 15.93599 | 78.47083 | 27011 ft | 479 kts | 187° |
| 2026-04-21 19:22 | 15.90311 | 78.46555 | 27467 ft | 477 kts | 187° |
| 2026-04-21 19:23 | 15.87011 | 78.46025 | 27913 ft | 476 kts | 187° |
| 2026-04-21 19:23 | 15.83761 | 78.45504 | 28344 ft | 475 kts | 187° |
| 2026-04-21 19:23 | 15.80459 | 78.44975 | 28776 ft | 474 kts | 187° |
| 2026-04-21 19:23 | 15.77207 | 78.44454 | 29196 ft | 472 kts | 187° |
| 2026-04-21 19:24 | 15.73913 | 78.43927 | 29611 ft | 471 kts | 187° |
| 2026-04-21 19:24 | 15.70670 | 78.43408 | 30013 ft | 470 kts | 187° |
| 2026-04-21 19:24 | 15.67414 | 78.42887 | 30391 ft | 469 kts | 187° |
| 2026-04-21 19:24 | 15.64165 | 78.42368 | 30701 ft | 470 kts | 187° |
| 2026-04-21 19:25 | 15.60932 | 78.41851 | 30969 ft | 471 kts | 187° |
| 2026-04-21 19:25 | 15.57672 | 78.41331 | 31230 ft | 472 kts | 187° |
| 2026-04-21 19:25 | 15.54427 | 78.40813 | 31486 ft | 473 kts | 187° |
| 2026-04-21 19:25 | 15.51202 | 78.40298 | 31730 ft | 473 kts | 187° |
| 2026-04-21 19:26 | 15.47910 | 78.39772 | 31923 ft | 474 kts | 187° |
| 2026-04-21 19:26 | 15.44644 | 78.39251 | 31936 ft | 475 kts | 187° |
| 2026-04-21 19:26 | 15.38069 | 78.38203 | 31939 ft | 475 kts | 187° |
| 2026-04-21 19:27 | 15.31498 | 78.37156 | 31942 ft | 475 kts | 187° |
| 2026-04-21 19:27 | 15.25027 | 78.36126 | 31954 ft | 475 kts | 187° |
| 2026-04-21 19:28 | 15.18433 | 78.35071 | 31978 ft | 475 kts | 187° |
| 2026-04-21 19:28 | 15.11819 | 78.34008 | 32000 ft | 475 kts | 187° |
| 2026-04-21 19:29 | 15.05280 | 78.32961 | 32013 ft | 475 kts | 187° |
| 2026-04-21 19:29 | 14.98685 | 78.31905 | 32018 ft | 475 kts | 187° |
| 2026-04-21 19:30 | 14.92107 | 78.30852 | 32020 ft | 476 kts | 187° |
| 2026-04-21 19:30 | 14.85556 | 78.29806 | 32021 ft | 478 kts | 187° |
| 2026-04-21 19:31 | 14.78970 | 78.28753 | 32021 ft | 478 kts | 187° |
| 2026-04-21 19:31 | 14.72321 | 78.27685 | 32021 ft | 478 kts | 187° |
| 2026-04-21 19:32 | 14.65694 | 78.26621 | 32021 ft | 478 kts | 187° |
| 2026-04-21 19:32 | 14.59109 | 78.25566 | 32021 ft | 478 kts | 187° |
| 2026-04-21 19:33 | 14.52497 | 78.24509 | 32022 ft | 478 kts | 187° |
| 2026-04-21 19:33 | 14.45891 | 78.23451 | 32021 ft | 478 kts | 187° |
| 2026-04-21 19:34 | 14.39276 | 78.22395 | 32022 ft | 478 kts | 187° |
| 2026-04-21 19:34 | 14.32682 | 78.21343 | 32021 ft | 478 kts | 187° |
| 2026-04-21 19:35 | 14.22795 | 78.19733 | 32021 ft | 479 kts | 189° |
| 2026-04-21 19:36 | 14.16244 | 78.18103 | 31116 ft | 486 kts | 195° |
| 2026-04-21 19:36 | 14.13021 | 78.16991 | 30226 ft | 488 kts | 199° |
| 2026-04-21 19:36 | 14.09838 | 78.15676 | 29431 ft | 487 kts | 202° |
| 2026-04-21 19:36 | 14.06731 | 78.14213 | 28655 ft | 486 kts | 204° |
| 2026-04-21 19:37 | 14.03674 | 78.12739 | 27752 ft | 488 kts | 204° |
| 2026-04-21 19:37 | 14.00535 | 78.11222 | 26736 ft | 492 kts | 204° |
| 2026-04-21 19:37 | 13.97446 | 78.09734 | 25741 ft | 494 kts | 204° |
| 2026-04-21 19:37 | 13.94269 | 78.08206 | 24729 ft | 496 kts | 204° |
| 2026-04-21 19:38 | 13.91115 | 78.06693 | 23675 ft | 499 kts | 204° |
| 2026-04-21 19:38 | 13.87960 | 78.05181 | 22699 ft | 498 kts | 204° |
| 2026-04-21 19:38 | 13.84809 | 78.03672 | 21915 ft | 493 kts | 204° |
| 2026-04-21 19:38 | 13.81687 | 78.02177 | 21140 ft | 488 kts | 204° |
| 2026-04-21 19:39 | 13.78612 | 78.00706 | 20361 ft | 484 kts | 205° |
| 2026-04-21 19:39 | 13.75553 | 77.99244 | 19634 ft | 478 kts | 205° |
| 2026-04-21 19:39 | 13.72544 | 77.97805 | 18937 ft | 471 kts | 205° |
| 2026-04-21 19:39 | 13.69549 | 77.96374 | 18250 ft | 465 kts | 205° |
| 2026-04-21 19:40 | 13.66649 | 77.94988 | 17586 ft | 459 kts | 205° |
| 2026-04-21 19:40 | 13.63860 | 77.93661 | 16968 ft | 453 kts | 205° |
| 2026-04-21 19:40 | 13.60978 | 77.92297 | 16382 ft | 446 kts | 205° |
| 2026-04-21 19:40 | 13.58159 | 77.90964 | 16008 ft | 435 kts | 205° |
| 2026-04-21 19:41 | 13.55467 | 77.89693 | 15828 ft | 419 kts | 205° |
| 2026-04-21 19:41 | 13.52832 | 77.88447 | 15626 ft | 405 kts | 205° |
| 2026-04-21 19:41 | 13.50295 | 77.87249 | 15437 ft | 391 kts | 205° |
| 2026-04-21 19:41 | 13.47841 | 77.86089 | 15265 ft | 378 kts | 205° |
| 2026-04-21 19:42 | 13.45497 | 77.84982 | 15119 ft | 365 kts | 205° |
| 2026-04-21 19:42 | 13.43223 | 77.83909 | 14992 ft | 352 kts | 205° |
| 2026-04-21 19:42 | 13.41030 | 77.82873 | 14883 ft | 339 kts | 205° |
| 2026-04-21 19:42 | 13.38898 | 77.81868 | 14787 ft | 325 kts | 205° |
| 2026-04-21 19:43 | 13.36897 | 77.80923 | 14703 ft | 312 kts | 205° |
| 2026-04-21 19:43 | 13.34957 | 77.80008 | 14624 ft | 299 kts | 205° |
| 2026-04-21 19:43 | 13.33086 | 77.79121 | 14543 ft | 286 kts | 207° |
| 2026-04-21 19:43 | 13.31542 | 77.77923 | 14370 ft | 273 kts | 237° |
| 2026-04-21 19:44 | 13.30868 | 77.76112 | 14071 ft | 269 kts | 268° |
| 2026-04-21 19:44 | 13.30877 | 77.74197 | 13739 ft | 266 kts | 274° |
| 2026-04-21 19:44 | 13.30958 | 77.72302 | 13392 ft | 264 kts | 274° |
| 2026-04-21 19:44 | 13.31018 | 77.70425 | 13063 ft | 262 kts | 273° |
| 2026-04-21 19:45 | 13.31056 | 77.68537 | 12734 ft | 261 kts | 273° |
| 2026-04-21 19:45 | 13.31080 | 77.66652 | 12315 ft | 264 kts | 272° |
| 2026-04-21 19:45 | 13.31100 | 77.64734 | 11650 ft | 267 kts | 272° |
| 2026-04-21 19:45 | 13.31116 | 77.62809 | 10970 ft | 269 kts | 272° |
| 2026-04-21 19:46 | 13.31132 | 77.60879 | 10293 ft | 271 kts | 272° |
| 2026-04-21 19:46 | 13.31147 | 77.58922 | 9611 ft | 273 kts | 271° |
| 2026-04-21 19:46 | 13.31162 | 77.56960 | 8929 ft | 274 kts | 271° |
| 2026-04-21 19:46 | 13.31177 | 77.54974 | 8243 ft | 274 kts | 271° |
| 2026-04-21 19:47 | 13.31191 | 77.53005 | 7573 ft | 274 kts | 271° |
| 2026-04-21 19:47 | 13.31205 | 77.51054 | 7147 ft | 263 kts | 271° |
| 2026-04-21 19:47 | 13.31217 | 77.49220 | 6989 ft | 243 kts | 270° |
| 2026-04-21 19:47 | 13.31088 | 77.47544 | 6954 ft | 220 kts | 251° |
| 2026-04-21 19:48 | 13.30338 | 77.46204 | 6961 ft | 214 kts | 223° |
| 2026-04-21 19:48 | 13.29103 | 77.45384 | 6827 ft | 213 kts | 195° |
| 2026-04-21 19:48 | 13.27633 | 77.45038 | 6489 ft | 211 kts | 188° |
| 2026-04-21 19:48 | 13.26186 | 77.44797 | 6189 ft | 210 kts | 187° |
| 2026-04-21 19:49 | 13.24750 | 77.44666 | 5986 ft | 203 kts | 167° |
| 2026-04-21 19:49 | 13.23488 | 77.45295 | 5995 ft | 202 kts | 133° |
| 2026-04-21 19:49 | 13.22619 | 77.46443 | 6013 ft | 202 kts | 122° |
| 2026-04-21 19:49 | 13.21885 | 77.47683 | 6003 ft | 201 kts | 120° |
| 2026-04-21 19:50 | 13.21460 | 77.48531 | 5998 ft | 201 kts | 112° |
| 2026-04-21 19:50 | 13.20967 | 77.50391 | 5992 ft | 196 kts | 97° |
| 2026-04-21 19:50 | 13.20861 | 77.51799 | 5995 ft | 196 kts | 92° |
| 2026-04-21 19:50 | 13.20841 | 77.53213 | 5895 ft | 196 kts | 90° |
| 2026-04-21 19:51 | 13.20839 | 77.54620 | 5648 ft | 195 kts | 90° |
| 2026-04-21 19:51 | 13.20834 | 77.56018 | 5384 ft | 193 kts | 90° |
| 2026-04-21 19:51 | 13.20823 | 77.57420 | 5122 ft | 192 kts | 91° |
| 2026-04-21 19:51 | 13.20810 | 77.58805 | 4865 ft | 192 kts | 91° |
| 2026-04-21 19:52 | 13.20796 | 77.60169 | 4656 ft | 185 kts | 91° |
| 2026-04-21 19:52 | 13.20784 | 77.61479 | 4438 ft | 171 kts | 91° |
| 2026-04-21 19:52 | 13.20773 | 77.62669 | 4170 ft | 159 kts | 91° |
| 2026-04-21 19:52 | 13.20763 | 77.63757 | 3942 ft | 149 kts | 91° |
| 2026-04-21 19:53 | 13.20753 | 77.64833 | 3747 ft | 148 kts | 91° |
| 2026-04-21 19:53 | 13.20743 | 77.65903 | 3556 ft | 148 kts | 91° |
| 2026-04-21 19:53 | 13.20733 | 77.66987 | 3358 ft | 148 kts | 91° |
| 2026-04-21 19:53 | 13.20723 | 77.68058 | 3153 ft | 148 kts | 92° |
| 2026-04-21 19:54 | 13.20710 | 77.69109 | 3009 ft | 136 kts | 91° |
| 2026-04-21 19:54 | 13.20702 | 77.69905 | 3009 ft | 87 kts | 89° |
| 2026-04-21 19:54 | 13.20695 | 77.70350 | 3009 ft | 36 kts | 95° |
| 2026-04-21 19:54 | 13.20626 | 77.70570 | 3009 ft | 25 kts | 119° |
| 2026-04-21 19:55 | 13.20543 | 77.70709 | 3009 ft | 16 kts | 118° |
| 2026-04-21 19:55 | 13.20525 | 77.70821 | 3009 ft | 16 kts | 90° |
| 2026-04-21 19:55 | 13.20524 | 77.70940 | 3009 ft | 17 kts | 91° |
| 2026-04-21 19:55 | 13.20523 | 77.71070 | 3009 ft | 18 kts | 89° |
| 2026-04-21 19:56 | 13.20513 | 77.71162 | 3009 ft | 10 kts | 123° |
| 2026-04-21 19:56 | 13.20443 | 77.71176 | 3009 ft | 11 kts | 185° |
| 2026-04-21 19:56 | 13.20358 | 77.71174 | 3009 ft | 12 kts | 179° |
| 2026-04-21 19:56 | 13.20276 | 77.71174 | 3009 ft | 10 kts | 191° |
| 2026-04-21 19:57 | 13.20240 | 77.71117 | 3009 ft | 10 kts | 265° |
| 2026-04-21 19:57 | 13.20239 | 77.71040 | 3009 ft | 11 kts | 270° |
| 2026-04-21 19:57 | 13.20239 | 77.70961 | 3009 ft | 9 kts | 270° |
| 2026-04-21 19:57 | 13.20234 | 77.70924 | 3009 ft | 4 kts | 228° |
| 2026-04-21 19:58 | 13.20202 | 77.70916 | 3009 ft | 4 kts | 180° |
| 2026-04-21 19:58 | 13.20180 | 77.70916 | 3009 ft | 0 kts | 179° |
| 2026-04-21 19:58 | 13.20175 | 77.70916 | 3009 ft | 0 kts | 178° |
| 2026-04-21 19:58 | 13.20168 | 77.70916 | 3009 ft | 1 kts | 179° |
| 2026-04-21 19:59 | 13.20167 | 77.70916 | 3009 ft | 0 kts | 179° |